Latest Weather Observations for Christmas Island

IDW60801

Issued at 10:32 am WST Thursday 28 July 2016 (issued every 30 minutes, with the page automatically refreshed every 10 minutes)

About weather observations | Map of weather stations | Latest weather observations for WA | Other Formats
Station Details ID: 200790 Name: CHRISTMAS ISLAND AERO Lat: -10.45 Lon: 105.69 Height: 261.0 m
Data from the previous 72 hours. | See also: Recent months at Christmas Island
Date/Time
WST
Temp
°C
App
Temp
°C
Dew
Point
°C
Rel
Hum
%
Delta-T
°C
Wind Press
QNH
hPa
Press
MSL
hPa
Rain since
9am
mm
Dir  Spd
km/h
Gust
km/h
Spd
kts
Gust
kts
28/06:30am 25.3 24.7 20.6 75 3.1 SE 24 35 13 19 1013.8 - 0.0
28/06:00am 25.2 24.7 20.8 76 2.9 ESE 24 33 13 18 1013.8 - 0.0
28/05:30am 25.4 25.3 20.7 75 3.1 ESE 22 32 12 17 1013.7 - 0.0
28/05:00am 25.4 24.9 20.7 75 3.1 SE 24 37 13 20 1013.8 - 0.0
28/04:30am 25.4 25.4 20.9 76 3.0 SE 22 32 12 17 1013.7 - 0.0
28/04:00am 25.4 25.8 21.0 76 2.9 SE 20 33 11 18 1013.6 1012.2 0.0
28/03:30am 25.3 25.4 21.1 77 2.8 SE 22 32 12 17 1013.7 - 0.0
28/03:00am 25.4 25.4 21.0 76 2.9 SE 22 32 12 17 1013.7 - 0.0
28/02:30am 25.1 25.9 21.7 81 2.3 SE 20 35 11 19 1013.8 - 0.0
28/02:00am 25.4 25.6 21.4 78 2.7 SE 22 32 12 17 1014.0 - 0.0
28/01:30am 25.5 25.7 21.3 77 2.8 ESE 22 32 12 17 1014.1 - 0.0
28/01:00am 25.4 25.4 21.0 76 2.9 ESE 22 33 12 18 1014.2 1012.8 0.0
28/12:30am 25.5 26.0 21.1 76 2.9 ESE 20 30 11 16 1014.4 - 0.0
28/12:00am 25.5 25.5 21.0 76 3.0 ESE 22 32 12 17 1014.4 - 0.0
 
Date/Time
WST
Temp
°C
App
Temp
°C
Dew
Point
°C
Rel
Hum
%
Delta-T
°C
Wind Press
QNH
hPa
Press
MSL
hPa
Rain since
9am
mm
Dir  Spd
km/h
Gust
km/h
Spd
kts
Gust
kts
27/11:30pm 25.7 25.7 21.7 78 2.7 ESE 24 39 13 21 1014.4 - 0.0
27/11:00pm 25.7 26.1 20.7 74 3.3 ESE 19 30 10 16 1014.6 - 0.0
27/10:30pm 25.7 26.2 21.2 76 3.0 ESE 20 33 11 18 1014.6 - 0.0
27/10:00pm 25.7 25.9 21.4 77 2.9 ESE 22 35 12 19 1014.3 1012.9 0.0
27/09:30pm 25.9 25.5 20.9 74 3.3 ESE 24 39 13 21 1014.3 - 0.0
27/09:00pm 25.9 26.3 21.7 77 2.8 ESE 22 32 12 17 1014.0 - 0.0
27/08:30pm 26.0 26.8 21.7 77 2.9 ESE 20 30 11 16 1013.6 - 0.0
27/08:00pm 25.9 25.9 21.6 77 2.9 ESE 24 35 13 19 1013.2 - 0.0
27/07:30pm 25.9 26.2 22.2 80 2.5 ESE 24 37 13 20 1012.9 - 0.0
27/07:00pm 25.6 26.6 22.2 81 2.3 SE 20 30 11 16 1012.6 1011.1 0.0
27/06:30pm 25.8 26.5 21.6 77 2.8 SE 20 32 11 17 1012.4 - 0.0
27/06:00pm 26.0 27.0 22.2 79 2.6 ESE 20 30 11 16 1012.3 - 0.0
27/05:30pm 26.5 27.4 21.9 76 3.1 ESE 20 30 11 16 1011.8 - 0.0
27/05:00pm 26.7 26.9 21.3 72 3.6 ESE 22 33 12 18 1011.6 - 0.0
27/04:30pm 26.8 27.3 21.1 71 3.8 ESE 20 30 11 16 1011.5 - 0.0
27/04:00pm 26.9 26.8 20.7 69 4.1 ESE 22 33 12 18 1011.5 1010.1 0.0
27/03:30pm 27.3 27.9 21.3 69 4.0 ESE 20 32 11 17 1011.5 - 0.0
27/03:00pm 27.1 27.6 21.1 69 4.0 ESE 20 28 11 15 1011.7 - 0.0
27/02:30pm 27.2 26.9 21.1 69 4.1 ESE 24 33 13 18 1011.8 - 0.0
27/02:00pm 27.6 27.6 21.0 67 4.4 ESE 22 32 12 17 1012.2 - 0.0
27/01:30pm 27.1 27.2 21.1 69 4.0 ESE 22 33 12 18 1012.4 - 0.0
27/01:00pm 27.5 27.7 21.4 69 4.1 ESE 22 33 12 18 1012.7 1011.2 0.0
27/12:30pm 27.0 26.8 21.2 70 3.9 ESE 24 33 13 18 1013.1 - 0.0
27/12:00pm 27.1 26.5 20.6 67 4.3 ESE 24 37 13 20 1013.3 - 0.0
27/11:30am 26.4 26.6 21.3 73 3.4 ESE 22 32 12 17 1013.8 - 0.0
27/11:00am 26.1 26.3 21.3 75 3.2 ESE 22 30 12 16 1013.9 - 0.0
27/10:30am 27.2 26.3 20.7 67 4.3 ESE 26 35 14 19 1014.1 - 0.0
27/10:00am 26.8 26.2 20.5 68 4.2 ESE 24 33 13 18 1014.2 1012.8 0.0
27/09:30am 26.6 25.1 20.2 68 4.2 ESE 28 41 15 22 1014.3 - 0.0
27/09:00am 25.9 25.6 20.3 71 3.7 ESE 22 33 12 18 1014.1 - 0.0
27/08:30am 25.8 25.7 20.0 70 3.8 ESE 20 39 11 21 1013.8 - 0.0
27/08:00am 25.6 25.3 20.3 72 3.5 ESE 22 35 12 19 1013.4 - 0.0
27/07:30am 25.2 24.1 19.5 70 3.7 ESE 24 33 13 18 1013.3 - 0.0
27/07:00am 25.0 24.7 19.6 72 3.5 ESE 20 30 11 16 1013.0 1011.6 0.0
27/06:30am 25.1 25.1 20.2 74 3.2 ESE 20 35 11 19 1012.9 - 0.0
27/06:00am 25.2 25.1 20.8 76 2.9 ESE 22 33 12 18 1012.8 - 0.0
27/05:30am 25.3 25.4 20.4 74 3.2 ESE 20 30 11 16 1012.8 - 0.0
27/05:00am 25.2 24.9 20.3 74 3.2 ESE 22 37 12 20 1012.8 - 0.0
27/04:30am 25.2 25.5 20.8 76 2.9 ESE 20 32 11 17 1012.8 - 0.0
27/04:00am 25.3 25.4 21.1 77 2.8 ESE 22 33 12 18 1012.9 1011.5 0.0
27/03:30am 25.3 25.7 20.9 76 2.9 ESE 20 35 11 19 1013.2 - 0.0
27/03:00am 25.4 24.8 20.4 74 3.3 ESE 24 35 13 19 1013.3 - 0.0
27/02:30am 25.4 25.8 20.9 76 3.0 ESE 20 41 11 22 1013.6 - 0.0
27/02:00am 25.5 27.0 21.3 77 2.8 E 15 26 8 14 1013.9 - 0.0
27/01:30am 25.5 26.1 21.1 76 2.9 E 19 35 10 19 1014.1 - 0.0
27/01:00am 25.7 26.2 21.2 76 3.0 E 20 32 11 17 1014.3 1012.9 0.0
27/12:30am 25.8 26.0 20.5 72 3.5 E 20 32 11 17 1014.4 - 0.0
27/12:00am 25.7 26.6 21.5 77 2.8 E 19 32 10 17 1014.5 - 0.0
 
Date/Time
WST
Temp
°C
App
Temp
°C
Dew
Point
°C
Rel
Hum
%
Delta-T
°C
Wind Press
QNH
hPa
Press
MSL
hPa
Rain since
9am
mm
Dir  Spd
km/h
Gust
km/h
Spd
kts
Gust
kts
26/11:30pm 25.7 27.6 22.0 80 2.5 E 15 26 8 14 1014.5 - 0.0
26/11:00pm 25.6 27.4 21.9 80 2.5 E 15 20 8 11 1014.6 - 0.0
26/10:30pm 25.5 26.9 21.8 80 2.5 ESE 17 26 9 14 1014.6 - 0.0
26/10:00pm 25.6 26.0 20.9 75 3.1 ESE 20 32 11 17 1014.5 1013.1 0.0
26/09:30pm 25.6 26.2 21.4 77 2.8 ESE 20 28 11 15 1014.4 - 0.0
26/09:00pm 25.5 26.2 21.5 78 2.7 ESE 20 30 11 16 1014.2 - 0.0
26/08:30pm 25.4 26.2 21.4 78 2.7 ESE 19 30 10 16 1013.9 - 0.0
26/08:00pm 25.5 26.4 21.9 80 2.4 ESE 20 33 11 18 1013.6 - 0.0
26/07:30pm 25.5 25.8 21.5 78 2.7 ESE 22 33 12 18 1013.2 - 0.0
26/07:00pm 25.5 26.2 21.6 79 2.6 ESE 20 30 11 16 1012.9 1011.5 0.0
26/06:30pm 25.8 26.3 21.9 79 2.6 ESE 22 30 12 16 1012.6 - 0.0
26/06:00pm 25.8 26.5 21.5 77 2.9 ESE 20 28 11 15 1012.5 - 0.0
26/05:30pm 26.0 26.4 21.8 77 2.8 ESE 22 35 12 19 1012.3 - 0.0
26/05:00pm 26.3 26.5 22.0 77 2.9 ESE 24 35 13 19 1012.2 - 0.0
26/04:30pm 26.5 27.5 22.2 77 2.9 ESE 20 32 11 17 1012.1 - 0.0
26/04:00pm 26.9 27.2 22.3 76 3.1 ESE 24 33 13 18 1011.9 1010.5 0.0
26/03:48pm 27.0 27.0 21.7 73 3.6 ESE 24 41 13 22 1012.1 - 0.0
26/03:30pm 26.7 26.7 22.4 77 2.9 ESE 26 33 14 18 1012.1 - 0.0
26/03:14pm 26.6 27.1 22.6 78 2.7 ESE 24 35 13 19 1012.2 - 0.0
26/03:00pm 26.9 27.3 22.5 77 3.0 ESE 24 33 13 18 1012.3 - 0.0
26/02:30pm 27.1 28.2 23.0 78 2.8 ESE 22 35 12 19 1012.5 - 0.0
26/02:00pm 27.6 28.5 22.0 71 3.8 ESE 20 30 11 16 1012.8 - 0.0
26/01:30pm 26.5 27.5 22.2 77 2.9 ESE 20 32 11 17 1013.4 - 0.0
26/01:00pm 27.2 28.0 22.5 75 3.2 ESE 22 32 12 17 1013.8 1012.4 0.0
26/12:30pm 27.0 28.0 22.1 74 3.3 ESE 20 32 11 17 1014.2 - 0.0
26/12:00pm 27.2 27.6 21.7 72 3.7 ESE 22 30 12 16 1014.5 - 0.0
26/11:30am 26.9 27.2 21.5 72 3.6 SE 22 32 12 17 1014.8 - 0.0
26/11:00am 26.6 27.3 22.2 77 3.0 SE 22 32 12 17 1014.9 - 0.0
26/10:30am 26.1 26.7 22.1 78 2.7 ESE 22 32 12 17 1015.0 - 0.0
26/10:00am 26.4 27.4 22.1 77 2.9 ESE 20 30 11 16 1015.2 1013.8 0.2
26/09:30am 25.7 26.8 22.0 80 2.5 ESE 19 28 10 15 1015.2 - 0.2
26/09:05am 25.8 25.8 21.0 75 3.2 ESE 22 32 12 17 1015.0 - 0.2
26/09:00am 25.9 25.9 21.7 77 2.8 ESE 24 33 13 18 1014.9 - 0.2
26/08:30am 26.0 27.1 22.3 80 2.5 ESE 20 28 11 15 1014.6 - 0.2
26/08:13am 25.6 26.7 22.4 82 2.2 SE 20 28 11 15 1014.5 - 0.2
26/08:00am 25.4 26.6 22.1 82 2.2 ESE 19 26 10 14 1014.4 - 0.2
26/07:30am 24.9 25.9 21.8 83 2.1 ESE 19 26 10 14 1014.3 - 0.2
26/07:00am 24.9 25.9 21.8 83 2.1 SE 19 28 10 15 1014.0 1012.6 0.2
26/06:30am 24.9 25.9 21.8 83 2.1 SE 19 28 10 15 1013.8 - 0.2
26/06:00am 24.8 25.7 21.5 82 2.2 SE 19 26 10 14 1013.6 - 0.2
26/05:30am 24.9 25.7 21.8 83 2.1 ESE 20 28 11 15 1013.4 - 0.2
26/05:25am 24.9 26.0 21.9 83 2.0 ESE 19 26 10 14 1013.4 - 0.2
26/05:00am 25.1 25.7 22.1 83 2.0 ESE 22 30 12 16 1013.4 - 0.2
26/04:42am 24.9 26.5 22.2 85 1.8 SE 17 28 9 15 1013.4 - 0.2
26/04:41am 24.9 26.5 22.2 85 1.8 SE 17 28 9 15 1013.4 - 0.2
26/04:30am 24.8 25.9 22.3 86 1.7 SE 20 28 11 15 1013.5 - 0.2
26/04:00am 24.9 26.6 22.4 86 1.7 SE 17 24 9 13 1013.4 1012.0 0.2
26/03:47am 24.9 27.0 22.5 86 1.6 SE 15 26 8 14 1013.5 - 0.2
26/03:41am 24.8 26.9 22.4 86 1.6 SE 15 22 8 12 1013.6 - 0.2
26/03:30am 24.8 27.0 22.6 87 1.5 SE 15 22 8 12 1013.7 - 0.2
26/03:00am 24.8 27.8 22.7 88 1.4 SE 11 17 6 9 1013.9 - 0.2
26/02:30am 24.5 27.7 22.4 88 1.4 SE 9 13 5 7 1013.9 - 0.2
26/02:16am 24.4 27.6 22.3 88 1.4 SE 9 17 5 9 1014.2 - 0.2
26/02:00am 24.3 27.8 22.1 87 1.5 SE 7 13 4 7 1014.3 - 0.2
26/01:30am 24.9 27.6 22.2 85 1.8 ESE 11 17 6 9 1014.5 - 0.2
26/01:04am 24.9 27.6 22.1 84 1.9 ESE 11 19 6 10 1014.6 - 0.2
26/01:00am 25.0 27.8 22.3 85 1.8 ESE 11 17 6 9 1014.5 1013.1 0.2
26/12:30am 25.0 27.7 22.2 84 1.9 E 11 17 6 9 1014.7 - 0.2
26/12:00am 25.0 27.6 22.0 83 2.0 E 11 17 6 9 1014.6 - 0.2
 
Date/Time
WST
Temp
°C
App
Temp
°C
Dew
Point
°C
Rel
Hum
%
Delta-T
°C
Wind Press
QNH
hPa
Press
MSL
hPa
Rain since
9am
mm
Dir  Spd
km/h
Gust
km/h
Spd
kts
Gust
kts
25/11:30pm 25.1 27.8 22.1 83 2.0 E 11 15 6 8 1014.5 - 0.2
25/11:00pm 25.2 27.4 21.9 82 2.2 E 13 19 7 10 1014.3 - 0.2
25/10:49pm 25.4 27.3 22.0 81 2.3 E 15 22 8 12 1014.3 - 0.2
25/10:37pm 25.5 27.9 22.2 82 2.2 E 13 20 7 11 1014.3 - 0.2
25/10:30pm 25.6 28.0 22.2 81 2.3 E 13 24 7 13 1014.2 - 0.2
25/10:00pm 25.2 27.9 22.1 83 2.1 E 11 17 6 9 1014.1 1012.7 0.2
25/09:30pm 25.3 27.9 22.0 82 2.2 E 11 20 6 11 1013.8 - 0.2
25/09:00pm 25.3 28.0 22.2 83 2.1 E 11 15 6 8 1013.6 - 0.2
25/08:30pm 25.5 28.1 22.6 84 2.0 E 13 17 7 9 1013.2 - 0.2
25/08:00pm 25.8 28.4 22.7 83 2.1 E 13 15 7 8 1012.9 - 0.2
25/07:30pm 26.0 28.6 22.6 81 2.3 E 13 17 7 9 1012.7 - 0.2
25/07:26pm 25.9 28.4 22.5 81 2.3 E 13 17 7 9 1012.7 - 0.2
25/07:00pm 25.9 28.5 22.7 82 2.2 E 13 19 7 10 1012.6 1011.1 0.2
25/06:48pm 26.1 29.1 22.7 81 2.3 E 11 17 6 9 1012.5 - 0.2
25/06:30pm 26.1 29.1 22.6 81 2.4 E 11 15 6 8 1012.4 - 0.2
25/06:10pm 26.3 28.7 22.2 78 2.8 ENE 13 17 7 9 1012.3 - 0.2
25/06:00pm 26.4 28.9 22.4 78 2.7 E 13 17 7 9 1012.3 - 0.2
25/05:53pm 26.5 29.1 22.7 79 2.6 ENE 13 19 7 10 1012.3 - 0.2
25/05:30pm 26.6 28.8 22.6 78 2.7 ENE 15 24 8 13 1011.9 - 0.2
25/05:00pm 27.9 30.3 23.0 74 3.4 E 15 20 8 11 1011.8 - 0.2
25/04:30pm 28.0 30.3 22.8 73 3.6 ENE 15 20 8 11 1011.9 - 0.2
25/04:00pm 28.0 30.3 22.8 73 3.6 E 15 20 8 11 1011.9 1010.5 0.2
25/03:30pm 28.3 30.3 22.9 72 3.7 E 17 24 9 13 1011.9 - 0.2
25/03:00pm 27.9 29.7 22.5 72 3.7 E 17 24 9 13 1012.5 - 0.2
25/02:30pm 28.0 28.7 21.6 68 4.3 ENE 20 26 11 14 1012.9 - 0.2
25/02:00pm 28.3 30.4 23.8 76 3.1 E 19 24 10 13 1013.0 - 0.2
25/01:30pm 27.4 30.0 23.3 78 2.8 E 15 20 8 11 1013.2 - 0.2
25/01:00pm 27.0 29.5 23.2 80 2.6 ENE 15 17 8 9 1013.5 1012.1 0.2
25/12:30pm 27.3 30.3 23.4 79 2.7 ENE 13 19 7 10 1014.0 - 0.2
25/12:00pm 26.9 29.6 22.8 78 2.8 E 13 17 7 9 1014.3 - 0.2

Other Formats:

Comma delimited format used in spreadsheet applications
http://www.bom.gov.au/fwo/IDW60801/IDW60801.96995.axf

JavaScript Object Notation format (JSON) in row-major order
http://www.bom.gov.au/fwo/IDW60801/IDW60801.96995.json